Terminal Aerodrome Forecast
Issued by NWS

Home | Current Version | Previous Version | Graphics & Text | Print | Product List | Glossary On
Versions: 1 2 3 4 5 6 7 8 9 10 11 12 13 14 15 16
000
FTUS43 KMPX 190500
TAFAXN
TAF
KAXN 190526Z 1906/2006 17009KT P6SM SCT150
     FM191300 21010KT P6SM FEW150
     FM191900 27011KT P6SM SKC
     FM200000 31006KT P6SM SKC=

USA.gov is the U.S. government's official web portal to all federal, state and local government web resources and services.